Aérodrome :
LOGIN :

S'inscrire | Disclaimer

   EN    FR    IT 

 










Légende :    VFR   VFR Marginal   IFR   IFR Intensif   IFR Très Intensif
Visi : 
Plafond : 
>= 8 km
>= 3000ft
5 à 8 km
1000 à 3000 ft
1500m à 5 km
500 à 1000 ft
800 à 1500m
200 à 500 ft
< 800m
< 200 ft
Symboles :   Orages  Brouillard  Fortes neiges  Fortes précipitations  Vent > 20 kt
SIGMETs :   Divers  Orages  Givrage  Turbulence  Onde Orograph.  Cendres Volcan.







- Altitude de l'aérodrome : 313 ft
- Code IATA : LEH
- Voir les cartes d'approche


LFOH - Le Havre Octeville

DERNIER METAR :
  • 142030Z AUTO 26013KT 9999 BKN013 OVC022 19/16 Q1021

METARs EXPIRÉS :
  • 142000Z AUTO 25012KT 9999 FEW014 OVC022 19/16 Q1020
  • 141930Z AUTO 26014KT 9999 FEW015 SCT025 19/15 Q1020
  • 141900Z AUTO 27012KT 250V310 9999 FEW027 19/15 Q1020
  • 141830Z AUTO 27009KT 9999 FEW014 19/16 Q1020
  • 141800Z AUTO 27010KT 240V300 CAVOK 20/15 Q1020 BECMG BKN012

TAF TAF LFOH
Valide du 14 à 12h jusqu'au 15 à 12h UTC


141100Z 1412/1512 29010KT 9999 BKN030
BECMG 1418/1420 BKN012
BECMG 1500/1503 OVC005
BECMG 1507/1509 BKN012
BECMG 1509/1511 SCT025
ATIS : +33 2 35 54 64 93
Pas de NOTAMs connus pour ce terrain.



MET'MAP, la Météo Aéronautique d'un coup d'oeil ! - Copyright ORBIFLY Décembre 2007 - Disclaimer

ORBIFLY MET'MAP TEAM :

Programmation & Développement : Alexandra Zaïnal
Conception & Développement : Baudouin d'Aumeries
Co-Programmation & Développement : Marc-Olivier Méhu
Soutien technique & logistique : Manuel Goepfert

Contact : metmap@orbifly.com




SOURCES & CREDITS :

   NOAA